sensor_id;sensor_type;location;lat;lon;timestamp;temperature;humidity
17762;DHT22;9005;48.838;10.112;2022-07-10T00:00:09;15.70;99.90
17762;DHT22;9005;48.838;10.112;2022-07-10T00:02:38;15.60;99.90
17762;DHT22;9005;48.838;10.112;2022-07-10T00:05:06;15.60;99.90
17762;DHT22;9005;48.838;10.112;2022-07-10T00:07:33;15.60;99.90
17762;DHT22;9005;48.838;10.112;2022-07-10T00:10:00;15.50;99.90
17762;DHT22;9005;48.838;10.112;2022-07-10T00:12:27;15.60;99.90
17762;DHT22;9005;48.838;10.112;2022-07-10T00:14:53;15.50;99.90
17762;DHT22;9005;48.838;10.112;2022-07-10T00:17:20;15.60;99.90
17762;DHT22;9005;48.838;10.112;2022-07-10T00:19:49;15.50;99.90
17762;DHT22;9005;48.838;10.112;2022-07-10T00:22:16;15.40;99.90
17762;DHT22;9005;48.838;10.112;2022-07-10T00:24:43;15.30;99.90
17762;DHT22;9005;48.838;10.112;2022-07-10T00:27:09;15.20;99.90
17762;DHT22;9005;48.838;10.112;2022-07-10T00:29:36;15.10;99.90
17762;DHT22;9005;48.838;10.112;2022-07-10T00:32:05;15.00;99.90
17762;DHT22;9005;48.838;10.112;2022-07-10T00:34:32;14.90;99.90
17762;DHT22;9005;48.838;10.112;2022-07-10T00:37:00;14.80;99.90
17762;DHT22;9005;48.838;10.112;2022-07-10T00:39:27;14.70;99.90
17762;DHT22;9005;48.838;10.112;2022-07-10T00:41:54;14.60;99.90
17762;DHT22;9005;48.838;10.112;2022-07-10T00:44:20;14.50;99.90
17762;DHT22;9005;48.838;10.112;2022-07-10T00:46:47;14.40;99.90
17762;DHT22;9005;48.838;10.112;2022-07-10T00:49:14;14.40;99.90
17762;DHT22;9005;48.838;10.112;2022-07-10T00:51:41;14.30;99.90
17762;DHT22;9005;48.838;10.112;2022-07-10T00:54:09;14.20;99.90
17762;DHT22;9005;48.838;10.112;2022-07-10T00:56:36;14.00;99.90
17762;DHT22;9005;48.838;10.112;2022-07-10T00:59:03;14.00;99.90
17762;DHT22;9005;48.838;10.112;2022-07-10T01:01:31;13.90;99.90
17762;DHT22;9005;48.838;10.112;2022-07-10T01:03:59;13.80;99.90
17762;DHT22;9005;48.838;10.112;2022-07-10T01:06:25;13.80;99.90
17762;DHT22;9005;48.838;10.112;2022-07-10T01:08:52;13.70;99.90
17762;DHT22;9005;48.838;10.112;2022-07-10T01:11:21;13.70;99.90
17762;DHT22;9005;48.838;10.112;2022-07-10T01:13:48;13.70;99.90
17762;DHT22;9005;48.838;10.112;2022-07-10T01:16:15;13.60;99.90
17762;DHT22;9005;48.838;10.112;2022-07-10T01:18:42;13.50;99.90
17762;DHT22;9005;48.838;10.112;2022-07-10T01:21:24;13.50;99.90
17762;DHT22;9005;48.838;10.112;2022-07-10T01:23:51;13.40;99.90
17762;DHT22;9005;48.838;10.112;2022-07-10T01:26:19;13.40;99.90
17762;DHT22;9005;48.838;10.112;2022-07-10T01:28:48;13.40;99.90
17762;DHT22;9005;48.838;10.112;2022-07-10T01:31:15;13.40;99.90
17762;DHT22;9005;48.838;10.112;2022-07-10T01:33:43;13.40;99.90
17762;DHT22;9005;48.838;10.112;2022-07-10T01:36:10;13.40;99.90
17762;DHT22;9005;48.838;10.112;2022-07-10T01:38:39;13.40;99.90
17762;DHT22;9005;48.838;10.112;2022-07-10T01:41:06;13.40;99.90
17762;DHT22;9005;48.838;10.112;2022-07-10T01:43:34;13.50;99.90
17762;DHT22;9005;48.838;10.112;2022-07-10T01:46:01;13.50;99.90
17762;DHT22;9005;48.838;10.112;2022-07-10T01:48:28;13.60;99.90
17762;DHT22;9005;48.838;10.112;2022-07-10T01:50:55;13.70;99.90
17762;DHT22;9005;48.838;10.112;2022-07-10T01:53:22;13.70;99.90
17762;DHT22;9005;48.838;10.112;2022-07-10T01:55:50;13.80;99.90
17762;DHT22;9005;48.838;10.112;2022-07-10T01:58:17;14.00;99.90
17762;DHT22;9005;48.838;10.112;2022-07-10T02:00:44;14.00;99.90
17762;DHT22;9005;48.838;10.112;2022-07-10T02:03:11;14.20;99.90
17762;DHT22;9005;48.838;10.112;2022-07-10T02:05:55;14.30;99.90
17762;DHT22;9005;48.838;10.112;2022-07-10T02:08:22;14.30;99.90
17762;DHT22;9005;48.838;10.112;2022-07-10T02:10:50;14.30;99.90
17762;DHT22;9005;48.838;10.112;2022-07-10T02:13:17;14.30;99.90
17762;DHT22;9005;48.838;10.112;2022-07-10T02:15:46;14.30;99.90
17762;DHT22;9005;48.838;10.112;2022-07-10T02:18:13;14.30;99.90
17762;DHT22;9005;48.838;10.112;2022-07-10T02:20:40;14.30;99.90
17762;DHT22;9005;48.838;10.112;2022-07-10T02:23:07;14.30;99.90
17762;DHT22;9005;48.838;10.112;2022-07-10T02:25:34;14.40;99.90
17762;DHT22;9005;48.838;10.112;2022-07-10T02:28:02;14.40;99.90
17762;DHT22;9005;48.838;10.112;2022-07-10T02:30:29;14.40;99.90
17762;DHT22;9005;48.838;10.112;2022-07-10T02:32:56;14.40;99.90
17762;DHT22;9005;48.838;10.112;2022-07-10T02:35:23;14.40;99.90
17762;DHT22;9005;48.838;10.112;2022-07-10T02:37:50;14.40;99.90
17762;DHT22;9005;48.838;10.112;2022-07-10T02:40:17;14.50;99.90
17762;DHT22;9005;48.838;10.112;2022-07-10T02:42:44;14.40;99.90
17762;DHT22;9005;48.838;10.112;2022-07-10T02:45:12;14.50;99.90
17762;DHT22;9005;48.838;10.112;2022-07-10T02:47:39;14.50;99.90
17762;DHT22;9005;48.838;10.112;2022-07-10T02:50:07;14.40;99.90
17762;DHT22;9005;48.838;10.112;2022-07-10T02:52:34;14.40;99.90
17762;DHT22;9005;48.838;10.112;2022-07-10T02:55:01;14.40;99.90
17762;DHT22;9005;48.838;10.112;2022-07-10T02:57:28;14.40;99.90
17762;DHT22;9005;48.838;10.112;2022-07-10T02:59:54;14.40;99.90
17762;DHT22;9005;48.838;10.112;2022-07-10T03:02:23;14.40;99.90
17762;DHT22;9005;48.838;10.112;2022-07-10T03:04:49;14.50;99.90
17762;DHT22;9005;48.838;10.112;2022-07-10T03:07:16;14.50;99.90
17762;DHT22;9005;48.838;10.112;2022-07-10T03:09:43;14.50;99.90
17762;DHT22;9005;48.838;10.112;2022-07-10T03:12:10;14.50;99.90
17762;DHT22;9005;48.838;10.112;2022-07-10T03:14:37;14.50;99.90
17762;DHT22;9005;48.838;10.112;2022-07-10T03:17:04;14.50;99.90
17762;DHT22;9005;48.838;10.112;2022-07-10T03:19:32;14.50;99.90
17762;DHT22;9005;48.838;10.112;2022-07-10T03:22:00;14.40;99.90
17762;DHT22;9005;48.838;10.112;2022-07-10T03:24:27;14.40;99.90
17762;DHT22;9005;48.838;10.112;2022-07-10T03:26:53;14.40;99.90
17762;DHT22;9005;48.838;10.112;2022-07-10T03:29:20;14.40;99.90
17762;DHT22;9005;48.838;10.112;2022-07-10T03:31:47;14.40;99.90
17762;DHT22;9005;48.838;10.112;2022-07-10T03:34:14;14.40;99.90
17762;DHT22;9005;48.838;10.112;2022-07-10T03:36:42;14.30;99.90
17762;DHT22;9005;48.838;10.112;2022-07-10T03:39:09;14.30;99.90
17762;DHT22;9005;48.838;10.112;2022-07-10T03:41:36;14.30;99.90
17762;DHT22;9005;48.838;10.112;2022-07-10T03:44:03;14.30;99.90
17762;DHT22;9005;48.838;10.112;2022-07-10T03:46:31;14.20;99.90
17762;DHT22;9005;48.838;10.112;2022-07-10T03:51:25;14.20;99.90
17762;DHT22;9005;48.838;10.112;2022-07-10T03:53:53;14.20;99.90
17762;DHT22;9005;48.838;10.112;2022-07-10T03:56:20;14.10;99.90
17762;DHT22;9005;48.838;10.112;2022-07-10T03:59:04;14.10;99.90
17762;DHT22;9005;48.838;10.112;2022-07-10T04:01:31;14.10;99.90
17762;DHT22;9005;48.838;10.112;2022-07-10T04:03:58;14.00;99.90
17762;DHT22;9005;48.838;10.112;2022-07-10T04:06:25;14.00;99.90
17762;DHT22;9005;48.838;10.112;2022-07-10T04:08:53;14.00;99.90
17762;DHT22;9005;48.838;10.112;2022-07-10T04:11:20;14.00;99.90
17762;DHT22;9005;48.838;10.112;2022-07-10T04:13:47;14.00;99.90
17762;DHT22;9005;48.838;10.112;2022-07-10T04:16:14;13.90;99.90
17762;DHT22;9005;48.838;10.112;2022-07-10T04:18:40;14.00;99.90
17762;DHT22;9005;48.838;10.112;2022-07-10T04:21:08;14.00;99.90
17762;DHT22;9005;48.838;10.112;2022-07-10T04:23:35;14.10;99.90
17762;DHT22;9005;48.838;10.112;2022-07-10T04:26:03;14.10;99.90
17762;DHT22;9005;48.838;10.112;2022-07-10T04:28:30;14.70;99.90
17762;DHT22;9005;48.838;10.112;2022-07-10T04:30:57;14.20;99.90
17762;DHT22;9005;48.838;10.112;2022-07-10T04:33:25;14.20;99.90
17762;DHT22;9005;48.838;10.112;2022-07-10T04:35:52;14.30;99.90
17762;DHT22;9005;48.838;10.112;2022-07-10T04:38:19;14.30;99.90
17762;DHT22;9005;48.838;10.112;2022-07-10T04:40:46;14.20;99.90
17762;DHT22;9005;48.838;10.112;2022-07-10T04:43:14;14.30;99.90
17762;DHT22;9005;48.838;10.112;2022-07-10T04:45:41;14.30;99.90
17762;DHT22;9005;48.838;10.112;2022-07-10T04:48:08;14.40;99.90
17762;DHT22;9005;48.838;10.112;2022-07-10T04:50:35;14.50;99.90
17762;DHT22;9005;48.838;10.112;2022-07-10T04:53:02;14.50;99.90
17762;DHT22;9005;48.838;10.112;2022-07-10T04:55:28;14.60;99.90
17762;DHT22;9005;48.838;10.112;2022-07-10T04:57:55;14.70;99.90
17762;DHT22;9005;48.838;10.112;2022-07-10T05:00:23;14.70;99.90
17762;DHT22;9005;48.838;10.112;2022-07-10T05:02:50;14.70;99.90
17762;DHT22;9005;48.838;10.112;2022-07-10T05:05:17;14.70;99.90
17762;DHT22;9005;48.838;10.112;2022-07-10T05:07:44;14.60;99.90
17762;DHT22;9005;48.838;10.112;2022-07-10T05:10:11;14.60;99.90
17762;DHT22;9005;48.838;10.112;2022-07-10T05:12:38;14.60;99.90
17762;DHT22;9005;48.838;10.112;2022-07-10T05:15:06;14.50;99.90
17762;DHT22;9005;48.838;10.112;2022-07-10T05:17:34;14.50;99.90
17762;DHT22;9005;48.838;10.112;2022-07-10T05:20:01;14.40;99.90
17762;DHT22;9005;48.838;10.112;2022-07-10T05:22:28;14.40;99.90
17762;DHT22;9005;48.838;10.112;2022-07-10T05:24:56;14.50;99.90
17762;DHT22;9005;48.838;10.112;2022-07-10T05:27:23;14.50;99.90
17762;DHT22;9005;48.838;10.112;2022-07-10T05:29:51;14.60;99.90
17762;DHT22;9005;48.838;10.112;2022-07-10T05:32:17;14.70;99.90
17762;DHT22;9005;48.838;10.112;2022-07-10T05:34:46;14.70;99.90
17762;DHT22;9005;48.838;10.112;2022-07-10T05:37:13;14.80;99.90
17762;DHT22;9005;48.838;10.112;2022-07-10T05:39:40;14.90;99.90
17762;DHT22;9005;48.838;10.112;2022-07-10T05:42:06;14.90;99.90
17762;DHT22;9005;48.838;10.112;2022-07-10T05:44:33;15.00;99.90
17762;DHT22;9005;48.838;10.112;2022-07-10T05:47:00;15.30;99.90
17762;DHT22;9005;48.838;10.112;2022-07-10T05:49:27;15.40;99.90
17762;DHT22;9005;48.838;10.112;2022-07-10T05:51:55;15.50;99.90
17762;DHT22;9005;48.838;10.112;2022-07-10T05:54:22;15.60;99.90
17762;DHT22;9005;48.838;10.112;2022-07-10T05:56:49;15.50;99.90
17762;DHT22;9005;48.838;10.112;2022-07-10T05:59:16;15.30;99.90
17762;DHT22;9005;48.838;10.112;2022-07-10T06:01:43;15.20;99.90
17762;DHT22;9005;48.838;10.112;2022-07-10T06:04:10;15.00;99.90
17762;DHT22;9005;48.838;10.112;2022-07-10T06:06:37;15.00;99.90
17762;DHT22;9005;48.838;10.112;2022-07-10T06:09:05;14.90;99.90
17762;DHT22;9005;48.838;10.112;2022-07-10T06:11:32;14.90;99.90
17762;DHT22;9005;48.838;10.112;2022-07-10T06:13:59;14.90;99.90
17762;DHT22;9005;48.838;10.112;2022-07-10T06:16:26;14.90;99.90
17762;DHT22;9005;48.838;10.112;2022-07-10T06:18:53;14.90;99.90
17762;DHT22;9005;48.838;10.112;2022-07-10T06:21:20;14.80;99.90
17762;DHT22;9005;48.838;10.112;2022-07-10T06:23:48;14.90;99.90
17762;DHT22;9005;48.838;10.112;2022-07-10T06:26:17;14.80;99.90
17762;DHT22;9005;48.838;10.112;2022-07-10T06:28:44;14.90;99.90
17762;DHT22;9005;48.838;10.112;2022-07-10T06:31:10;14.90;99.90
17762;DHT22;9005;48.838;10.112;2022-07-10T06:33:37;15.00;99.90
17762;DHT22;9005;48.838;10.112;2022-07-10T06:36:05;15.10;99.90
17762;DHT22;9005;48.838;10.112;2022-07-10T06:38:32;15.20;99.90
17762;DHT22;9005;48.838;10.112;2022-07-10T06:40:59;15.20;99.90
17762;DHT22;9005;48.838;10.112;2022-07-10T06:43:27;15.30;99.90
17762;DHT22;9005;48.838;10.112;2022-07-10T06:45:54;15.40;99.90
17762;DHT22;9005;48.838;10.112;2022-07-10T06:48:21;15.50;99.90
17762;DHT22;9005;48.838;10.112;2022-07-10T06:50:48;15.50;99.90
17762;DHT22;9005;48.838;10.112;2022-07-10T06:53:15;15.50;99.90
17762;DHT22;9005;48.838;10.112;2022-07-10T06:55:42;15.50;99.90
17762;DHT22;9005;48.838;10.112;2022-07-10T06:58:09;15.60;99.90
17762;DHT22;9005;48.838;10.112;2022-07-10T07:00:37;15.70;99.90
17762;DHT22;9005;48.838;10.112;2022-07-10T07:03:04;15.80;99.90
17762;DHT22;9005;48.838;10.112;2022-07-10T07:05:31;16.00;99.90
17762;DHT22;9005;48.838;10.112;2022-07-10T07:07:57;16.10;99.90
17762;DHT22;9005;48.838;10.112;2022-07-10T07:10:24;16.10;99.90
17762;DHT22;9005;48.838;10.112;2022-07-10T07:12:51;16.00;99.90
17762;DHT22;9005;48.838;10.112;2022-07-10T07:15:18;16.10;99.90
17762;DHT22;9005;48.838;10.112;2022-07-10T07:17:50;16.30;99.90
17762;DHT22;9005;48.838;10.112;2022-07-10T07:23:22;16.50;99.90
17762;DHT22;9005;48.838;10.112;2022-07-10T07:25:49;16.60;99.90
17762;DHT22;9005;48.838;10.112;2022-07-10T07:28:17;16.50;99.90
17762;DHT22;9005;48.838;10.112;2022-07-10T07:30:45;16.40;99.90
17762;DHT22;9005;48.838;10.112;2022-07-10T07:33:14;16.40;99.90
17762;DHT22;9005;48.838;10.112;2022-07-10T07:35:41;16.50;99.90
17762;DHT22;9005;48.838;10.112;2022-07-10T07:38:08;16.50;99.90
17762;DHT22;9005;48.838;10.112;2022-07-10T07:40:35;16.50;99.90
17762;DHT22;9005;48.838;10.112;2022-07-10T07:43:03;16.50;99.90
17762;DHT22;9005;48.838;10.112;2022-07-10T07:45:30;16.40;99.90
17762;DHT22;9005;48.838;10.112;2022-07-10T07:47:58;16.40;99.90
17762;DHT22;9005;48.838;10.112;2022-07-10T07:50:30;16.20;99.90
17762;DHT22;9005;48.838;10.112;2022-07-10T07:52:58;16.20;99.90
17762;DHT22;9005;48.838;10.112;2022-07-10T07:55:25;16.10;99.90
17762;DHT22;9005;48.838;10.112;2022-07-10T07:57:53;15.90;99.90
17762;DHT22;9005;48.838;10.112;2022-07-10T08:00:22;15.80;99.90
17762;DHT22;9005;48.838;10.112;2022-07-10T08:02:49;15.70;99.90
17762;DHT22;9005;48.838;10.112;2022-07-10T08:05:16;15.70;99.90
17762;DHT22;9005;48.838;10.112;2022-07-10T08:07:46;15.80;99.90
17762;DHT22;9005;48.838;10.112;2022-07-10T08:10:15;15.90;99.90
17762;DHT22;9005;48.838;10.112;2022-07-10T08:12:43;15.90;99.90
17762;DHT22;9005;48.838;10.112;2022-07-10T08:15:12;15.70;99.90
17762;DHT22;9005;48.838;10.112;2022-07-10T08:17:39;15.70;99.90
17762;DHT22;9005;48.838;10.112;2022-07-10T08:20:11;15.90;99.90
17762;DHT22;9005;48.838;10.112;2022-07-10T08:22:39;16.10;99.90
17762;DHT22;9005;48.838;10.112;2022-07-10T08:25:08;16.50;99.90
17762;DHT22;9005;48.838;10.112;2022-07-10T08:27:36;16.70;99.10
17762;DHT22;9005;48.838;10.112;2022-07-10T08:30:04;17.00;99.10
17762;DHT22;9005;48.838;10.112;2022-07-10T08:32:31;17.10;98.80
17762;DHT22;9005;48.838;10.112;2022-07-10T08:34:58;17.10;98.20
17762;DHT22;9005;48.838;10.112;2022-07-10T08:37:25;17.00;98.30
17762;DHT22;9005;48.838;10.112;2022-07-10T08:39:51;16.80;98.80
17762;DHT22;9005;48.838;10.112;2022-07-10T08:42:20;16.80;98.90
17762;DHT22;9005;48.838;10.112;2022-07-10T08:44:47;16.90;99.40
17762;DHT22;9005;48.838;10.112;2022-07-10T08:47:14;17.10;98.80
17762;DHT22;9005;48.838;10.112;2022-07-10T08:49:46;17.20;98.40
17762;DHT22;9005;48.838;10.112;2022-07-10T08:52:23;17.20;98.20
17762;DHT22;9005;48.838;10.112;2022-07-10T08:54:51;17.20;98.60
17762;DHT22;9005;48.838;10.112;2022-07-10T08:57:20;17.20;97.70
17762;DHT22;9005;48.838;10.112;2022-07-10T08:59:47;17.10;98.20
17762;DHT22;9005;48.838;10.112;2022-07-10T09:02:14;16.90;98.40
17762;DHT22;9005;48.838;10.112;2022-07-10T09:04:41;16.80;98.90
17762;DHT22;9005;48.838;10.112;2022-07-10T09:07:09;16.80;98.80
17762;DHT22;9005;48.838;10.112;2022-07-10T09:09:51;16.70;98.90
17762;DHT22;9005;48.838;10.112;2022-07-10T09:12:20;16.60;99.40
17762;DHT22;9005;48.838;10.112;2022-07-10T09:14:47;16.80;99.30
17762;DHT22;9005;48.838;10.112;2022-07-10T09:17:14;16.90;98.20
17762;DHT22;9005;48.838;10.112;2022-07-10T09:19:41;17.10;98.80
17762;DHT22;9005;48.838;10.112;2022-07-10T09:22:10;17.30;97.80
17762;DHT22;9005;48.838;10.112;2022-07-10T09:24:38;17.70;97.40
17762;DHT22;9005;48.838;10.112;2022-07-10T09:27:06;18.00;96.30
17762;DHT22;9005;48.838;10.112;2022-07-10T09:29:45;18.00;96.30
17762;DHT22;9005;48.838;10.112;2022-07-10T09:32:13;17.80;96.60
17762;DHT22;9005;48.838;10.112;2022-07-10T09:34:41;17.70;95.20
17762;DHT22;9005;48.838;10.112;2022-07-10T09:37:22;17.40;96.70
17762;DHT22;9005;48.838;10.112;2022-07-10T09:39:54;17.30;96.20
17762;DHT22;9005;48.838;10.112;2022-07-10T09:42:29;17.20;97.80
17762;DHT22;9005;48.838;10.112;2022-07-10T09:45:18;17.30;98.60
17762;DHT22;9005;48.838;10.112;2022-07-10T09:47:47;17.60;97.00
17762;DHT22;9005;48.838;10.112;2022-07-10T09:50:22;17.50;96.90
17762;DHT22;9005;48.838;10.112;2022-07-10T09:52:50;17.60;96.50
17762;DHT22;9005;48.838;10.112;2022-07-10T09:55:20;17.70;96.20
17762;DHT22;9005;48.838;10.112;2022-07-10T09:57:51;17.90;96.20
17762;DHT22;9005;48.838;10.112;2022-07-10T10:00:24;18.10;95.60
17762;DHT22;9005;48.838;10.112;2022-07-10T10:02:56;18.30;93.60
17762;DHT22;9005;48.838;10.112;2022-07-10T10:05:36;18.30;93.90
17762;DHT22;9005;48.838;10.112;2022-07-10T10:08:11;18.20;93.30
17762;DHT22;9005;48.838;10.112;2022-07-10T10:10:44;18.00;94.60
17762;DHT22;9005;48.838;10.112;2022-07-10T10:13:11;17.60;94.60
17762;DHT22;9005;48.838;10.112;2022-07-10T10:15:42;17.50;95.90
17762;DHT22;9005;48.838;10.112;2022-07-10T10:18:10;17.80;94.70
17762;DHT22;9005;48.838;10.112;2022-07-10T10:20:40;17.80;94.90
17762;DHT22;9005;48.838;10.112;2022-07-10T10:23:10;18.20;93.40
17762;DHT22;9005;48.838;10.112;2022-07-10T10:25:38;18.30;91.90
17762;DHT22;9005;48.838;10.112;2022-07-10T10:28:07;18.20;92.20
17762;DHT22;9005;48.838;10.112;2022-07-10T10:30:37;18.20;90.70
17762;DHT22;9005;48.838;10.112;2022-07-10T10:36:07;18.70;86.20
17762;DHT22;9005;48.838;10.112;2022-07-10T10:39:02;19.90;80.40
17762;DHT22;9005;48.838;10.112;2022-07-10T10:41:36;20.50;74.20
17762;DHT22;9005;48.838;10.112;2022-07-10T10:44:23;20.70;70.60
17762;DHT22;9005;48.838;10.112;2022-07-10T10:47:02;20.80;71.00
17762;DHT22;9005;48.838;10.112;2022-07-10T10:50:04;21.60;59.60
17762;DHT22;9005;48.838;10.112;2022-07-10T10:52:32;21.40;60.10
17762;DHT22;9005;48.838;10.112;2022-07-10T10:57:39;19.90;66.90
17762;DHT22;9005;48.838;10.112;2022-07-10T11:00:12;19.50;69.20
17762;DHT22;9005;48.838;10.112;2022-07-10T11:02:41;19.80;73.00
17762;DHT22;9005;48.838;10.112;2022-07-10T11:05:38;20.00;64.30
17762;DHT22;9005;48.838;10.112;2022-07-10T11:08:08;19.80;62.50
17762;DHT22;9005;48.838;10.112;2022-07-10T11:10:38;19.50;67.90
17762;DHT22;9005;48.838;10.112;2022-07-10T11:13:05;20.30;66.90
17762;DHT22;9005;48.838;10.112;2022-07-10T11:15:35;21.40;60.80
17762;DHT22;9005;48.838;10.112;2022-07-10T11:18:06;22.50;56.60
17762;DHT22;9005;48.838;10.112;2022-07-10T11:20:35;23.50;53.20
17762;DHT22;9005;48.838;10.112;2022-07-10T11:23:31;24.00;48.60
17762;DHT22;9005;48.838;10.112;2022-07-10T11:26:04;23.90;47.80
17762;DHT22;9005;48.838;10.112;2022-07-10T11:28:49;23.80;47.50
17762;DHT22;9005;48.838;10.112;2022-07-10T11:31:17;23.30;50.70
17762;DHT22;9005;48.838;10.112;2022-07-10T11:33:46;24.10;47.30
17762;DHT22;9005;48.838;10.112;2022-07-10T11:36:16;25.10;44.10
17762;DHT22;9005;48.838;10.112;2022-07-10T11:38:45;25.20;42.80
17762;DHT22;9005;48.838;10.112;2022-07-10T11:41:13;24.60;44.50
17762;DHT22;9005;48.838;10.112;2022-07-10T11:43:51;24.90;42.60
17762;DHT22;9005;48.838;10.112;2022-07-10T11:46:18;23.70;45.00
17762;DHT22;9005;48.838;10.112;2022-07-10T11:48:47;22.30;47.80
17762;DHT22;9005;48.838;10.112;2022-07-10T11:51:25;21.30;50.60
17762;DHT22;9005;48.838;10.112;2022-07-10T11:53:55;21.10;56.50
17762;DHT22;9005;48.838;10.112;2022-07-10T11:56:22;22.30;51.80
17762;DHT22;9005;48.838;10.112;2022-07-10T11:58:56;22.80;47.60
17762;DHT22;9005;48.838;10.112;2022-07-10T12:01:24;22.30;48.40
17762;DHT22;9005;48.838;10.112;2022-07-10T12:03:57;22.00;48.90
17762;DHT22;9005;48.838;10.112;2022-07-10T12:06:25;22.40;49.50
17762;DHT22;9005;48.838;10.112;2022-07-10T12:08:55;23.30;46.00
17762;DHT22;9005;48.838;10.112;2022-07-10T12:11:22;24.40;43.10
17762;DHT22;9005;48.838;10.112;2022-07-10T12:13:50;25.40;41.30
17762;DHT22;9005;48.838;10.112;2022-07-10T12:16:19;24.80;41.80
17762;DHT22;9005;48.838;10.112;2022-07-10T12:18:47;24.00;43.20
17762;DHT22;9005;48.838;10.112;2022-07-10T12:21:15;23.60;45.50
17762;DHT22;9005;48.838;10.112;2022-07-10T12:23:45;23.90;45.10
17762;DHT22;9005;48.838;10.112;2022-07-10T12:26:15;24.90;42.20
17762;DHT22;9005;48.838;10.112;2022-07-10T12:28:53;26.30;38.70
17762;DHT22;9005;48.838;10.112;2022-07-10T12:31:22;26.00;37.30
17762;DHT22;9005;48.838;10.112;2022-07-10T12:33:53;25.30;37.80
17762;DHT22;9005;48.838;10.112;2022-07-10T12:36:23;24.30;41.40
17762;DHT22;9005;48.838;10.112;2022-07-10T12:38:57;23.50;43.20
17762;DHT22;9005;48.838;10.112;2022-07-10T12:41:26;23.00;45.00
17762;DHT22;9005;48.838;10.112;2022-07-10T12:43:53;23.70;44.80
17762;DHT22;9005;48.838;10.112;2022-07-10T12:46:21;24.90;42.20
17762;DHT22;9005;48.838;10.112;2022-07-10T12:49:02;25.70;40.40
17762;DHT22;9005;48.838;10.112;2022-07-10T12:51:30;25.60;39.00
17762;DHT22;9005;48.838;10.112;2022-07-10T12:53:58;25.30;40.40
17762;DHT22;9005;48.838;10.112;2022-07-10T12:56:37;25.60;40.10
17762;DHT22;9005;48.838;10.112;2022-07-10T12:59:12;26.10;39.90
17762;DHT22;9005;48.838;10.112;2022-07-10T13:01:40;26.50;38.00
17762;DHT22;9005;48.838;10.112;2022-07-10T13:04:07;26.10;36.60
17762;DHT22;9005;48.838;10.112;2022-07-10T13:06:37;25.60;38.90
17762;DHT22;9005;48.838;10.112;2022-07-10T13:09:18;25.80;38.80
17762;DHT22;9005;48.838;10.112;2022-07-10T13:11:46;25.90;39.40
17762;DHT22;9005;48.838;10.112;2022-07-10T13:14:13;26.10;37.80
17762;DHT22;9005;48.838;10.112;2022-07-10T13:16:41;25.70;37.80
17762;DHT22;9005;48.838;10.112;2022-07-10T13:19:08;25.50;38.10
17762;DHT22;9005;48.838;10.112;2022-07-10T13:21:35;24.50;39.70
17762;DHT22;9005;48.838;10.112;2022-07-10T13:24:02;23.80;43.30
17762;DHT22;9005;48.838;10.112;2022-07-10T13:26:29;23.90;42.30
17762;DHT22;9005;48.838;10.112;2022-07-10T13:28:58;25.00;40.90
17762;DHT22;9005;48.838;10.112;2022-07-10T13:31:25;26.20;38.10
17762;DHT22;9005;48.838;10.112;2022-07-10T13:33:52;27.00;37.10
17762;DHT22;9005;48.838;10.112;2022-07-10T13:36:19;26.40;38.80
17762;DHT22;9005;48.838;10.112;2022-07-10T13:38:46;25.90;38.50
17762;DHT22;9005;48.838;10.112;2022-07-10T13:41:15;25.40;38.00
17762;DHT22;9005;48.838;10.112;2022-07-10T13:43:42;24.60;39.40
17762;DHT22;9005;48.838;10.112;2022-07-10T13:46:10;24.60;41.00
17762;DHT22;9005;48.838;10.112;2022-07-10T13:48:37;24.20;40.50
17762;DHT22;9005;48.838;10.112;2022-07-10T13:51:04;23.10;42.10
17762;DHT22;9005;48.838;10.112;2022-07-10T13:53:31;22.50;43.40
17762;DHT22;9005;48.838;10.112;2022-07-10T13:55:58;22.60;45.80
17762;DHT22;9005;48.838;10.112;2022-07-10T13:58:25;23.10;43.30
17762;DHT22;9005;48.838;10.112;2022-07-10T14:00:52;23.50;42.90
17762;DHT22;9005;48.838;10.112;2022-07-10T14:03:21;23.70;42.80
17762;DHT22;9005;48.838;10.112;2022-07-10T14:05:47;24.10;40.50
17762;DHT22;9005;48.838;10.112;2022-07-10T14:08:14;24.00;39.50
17762;DHT22;9005;48.838;10.112;2022-07-10T14:10:41;24.20;40.60
17762;DHT22;9005;48.838;10.112;2022-07-10T14:13:08;24.60;39.60
17762;DHT22;9005;48.838;10.112;2022-07-10T14:15:35;25.00;37.80
17762;DHT22;9005;48.838;10.112;2022-07-10T14:18:02;25.00;38.00
17762;DHT22;9005;48.838;10.112;2022-07-10T14:20:31;25.20;38.30
17762;DHT22;9005;48.838;10.112;2022-07-10T14:23:19;25.50;38.20
17762;DHT22;9005;48.838;10.112;2022-07-10T14:25:46;25.60;37.00
17762;DHT22;9005;48.838;10.112;2022-07-10T14:28:13;26.00;36.60
17762;DHT22;9005;48.838;10.112;2022-07-10T14:30:41;26.00;37.90
17762;DHT22;9005;48.838;10.112;2022-07-10T14:33:09;25.60;36.90
17762;DHT22;9005;48.838;10.112;2022-07-10T14:35:37;25.60;38.30
17762;DHT22;9005;48.838;10.112;2022-07-10T14:38:04;26.60;37.50
17762;DHT22;9005;48.838;10.112;2022-07-10T14:40:31;27.70;35.40
17762;DHT22;9005;48.838;10.112;2022-07-10T14:45:25;28.10;33.70
17762;DHT22;9005;48.838;10.112;2022-07-10T14:47:52;28.40;33.20
17762;DHT22;9005;48.838;10.112;2022-07-10T14:50:20;28.30;32.90
17762;DHT22;9005;48.838;10.112;2022-07-10T14:52:48;27.70;33.60
17762;DHT22;9005;48.838;10.112;2022-07-10T14:55:15;26.90;35.00
17762;DHT22;9005;48.838;10.112;2022-07-10T14:57:42;26.70;35.00
17762;DHT22;9005;48.838;10.112;2022-07-10T15:00:09;26.00;35.10
17762;DHT22;9005;48.838;10.112;2022-07-10T15:02:36;24.90;36.70
17762;DHT22;9005;48.838;10.112;2022-07-10T15:05:04;24.60;37.70
17762;DHT22;9005;48.838;10.112;2022-07-10T15:07:31;24.60;38.70
17762;DHT22;9005;48.838;10.112;2022-07-10T15:09:59;25.30;38.50
17762;DHT22;9005;48.838;10.112;2022-07-10T15:12:26;26.00;36.80
17762;DHT22;9005;48.838;10.112;2022-07-10T15:14:53;26.60;35.60
17762;DHT22;9005;48.838;10.112;2022-07-10T15:17:19;25.30;36.00
17762;DHT22;9005;48.838;10.112;2022-07-10T15:19:46;24.30;37.90
17762;DHT22;9005;48.838;10.112;2022-07-10T15:22:13;24.20;38.90
17762;DHT22;9005;48.838;10.112;2022-07-10T15:24:40;24.30;38.00
17762;DHT22;9005;48.838;10.112;2022-07-10T15:27:10;24.90;37.00
17762;DHT22;9005;48.838;10.112;2022-07-10T15:29:38;25.50;36.80
17762;DHT22;9005;48.838;10.112;2022-07-10T15:32:06;25.70;36.20
17762;DHT22;9005;48.838;10.112;2022-07-10T15:34:33;25.40;37.30
17762;DHT22;9005;48.838;10.112;2022-07-10T15:37:00;25.50;36.80
17762;DHT22;9005;48.838;10.112;2022-07-10T15:39:27;25.60;36.00
17762;DHT22;9005;48.838;10.112;2022-07-10T15:41:54;25.00;36.30
17762;DHT22;9005;48.838;10.112;2022-07-10T15:44:22;25.10;38.20
17762;DHT22;9005;48.838;10.112;2022-07-10T15:46:49;24.80;37.10
17762;DHT22;9005;48.838;10.112;2022-07-10T15:49:16;23.90;38.70
17762;DHT22;9005;48.838;10.112;2022-07-10T15:51:42;23.50;40.30